Terminal Aerodrome Forecast
Issued by NWS

Home | Current Version | Previous Version | Graphics & Text | Print | Product List | Glossary On
Versions: 1 2 3 4 5 6 7 8 9 10 11 12 13 14
762
FTUS43 KMPX 202003 AAA
TAFRNH
TAF AMD
KRNH 202003Z 2020/2118 33010KT P6SM OVC014
     FM202100 32012KT P6SM BKN020
     FM210300 34008KT P6SM BKN035
     FM210500 33006KT P6SM SCT035=

USA.gov is the U.S. government's official web portal to all federal, state and local government web resources and services.